Time;durP1;ratioP1;P1;durP2;ratioP2;P2;SDS_P1;SDS_P2;PMS_P1;PMS_P2;Temp;Humidity;BMP_temperature;BMP_pressure;BME280_temperature;BME280_humidity;BME280_pressure;Samples;Min_cycle;Max_cycle;Signal;HPM_P1;HPM_P2
2023/09/27 00:00:36;;;;;;;3.37;1.10;;;17.10;59.90;;;;;;2587986;52;20932;-67
2023/09/27 00:03:06;;;;;;;2.28;1.12;;;17.10;60.00;;;;;;2347995;53;21487;-67
2023/09/27 00:05:32;;;;;;;2.90;1.30;;;17.10;60.80;;;;;;2342343;53;21222;-67
2023/09/27 00:07:59;;;;;;;1.85;0.82;;;17.10;60.10;;;;;;2341695;53;21983;-66
2023/09/27 00:10:26;;;;;;;2.25;0.90;;;17.00;60.00;;;;;;2348044;53;21012;-68
2023/09/27 00:12:54;;;;;;;3.00;1.30;;;17.00;60.70;;;;;;2603691;52;20901;-67
2023/09/27 00:15:20;;;;;;;3.28;1.20;;;17.00;60.00;;;;;;2342728;53;20937;-68
2023/09/27 00:17:48;;;;;;;2.90;1.10;;;17.00;60.10;;;;;;2342514;53;20924;-67
2023/09/27 00:20:20;;;;;;;2.92;1.15;;;17.00;60.10;;;;;;2342495;53;20947;-69
2023/09/27 00:22:47;;;;;;;2.60;1.00;;;16.90;60.10;;;;;;2588138;52;20929;-67
2023/09/27 00:25:14;;;;;;;2.58;1.00;;;16.90;60.00;;;;;;2343234;53;20941;-70
2023/09/27 00:27:41;;;;;;;2.80;0.98;;;16.90;60.00;;;;;;2355636;53;20965;-69
2023/09/27 00:30:16;;;;;;;2.42;1.00;;;16.90;60.00;;;;;;2338044;54;20972;-67
2023/09/27 00:32:46;;;;;;;1.70;0.90;;;16.90;60.10;;;;;;2587898;52;20941;-68
2023/09/27 00:35:19;;;;;;;2.83;1.00;;;16.80;60.00;;;;;;2595457;52;21007;-69
2023/09/27 00:37:50;;;;;;;2.30;1.10;;;16.80;60.00;;;;;;2619899;52;20946;-67
2023/09/27 00:40:17;;;;;;;2.30;1.00;;;16.80;60.00;;;;;;2622107;52;21747;-70
2023/09/27 00:42:43;;;;;;;2.65;1.20;;;16.70;60.00;;;;;;2370344;53;20914;-68
2023/09/27 00:45:10;;;;;;;2.47;1.17;;;16.70;60.20;;;;;;2358682;53;20942;-68
2023/09/27 00:47:37;;;;;;;2.55;1.15;;;16.70;60.30;;;;;;2348562;53;21015;-68
2023/09/27 00:50:09;;;;;;;2.47;1.10;;;16.70;60.30;;;;;;2370007;53;21658;-68
2023/09/27 00:52:37;;;;;;;2.40;1.10;;;16.70;60.30;;;;;;2622919;52;20928;-67
2023/09/27 00:55:05;;;;;;;2.72;1.20;;;16.60;60.30;;;;;;2622452;52;20966;-67
2023/09/27 00:57:32;;;;;;;2.47;1.10;;;16.60;60.30;;;;;;2623460;52;21657;-68
2023/09/27 00:59:58;;;;;;;2.55;1.05;;;16.60;60.30;;;;;;2622166;52;20969;-68
2023/09/27 01:02:28;;;;;;;1.75;0.85;;;16.60;60.30;;;;;;2623003;52;20937;-68
2023/09/27 01:04:55;;;;;;;2.30;1.10;;;16.60;60.20;;;;;;2369349;53;21069;-68
2023/09/27 01:07:24;;;;;;;2.47;0.80;;;16.50;60.10;;;;;;2370497;53;20978;-68
2023/09/27 01:09:52;;;;;;;1.98;0.98;;;16.50;60.20;;;;;;2370175;53;20982;-68
2023/09/27 01:12:18;;;;;;;1.67;0.80;;;16.50;60.20;;;;;;2371008;53;20950;-66
2023/09/27 01:14:45;;;;;;;2.90;1.10;;;16.40;60.10;;;;;;2594119;52;20990;-69
2023/09/27 01:17:11;;;;;;;1.95;0.90;;;16.40;60.20;;;;;;2370418;53;20907;-67
2023/09/27 01:19:39;;;;;;;2.70;0.95;;;16.40;60.30;;;;;;2370510;53;21014;-67
2023/09/27 01:22:05;;;;;;;3.05;1.23;;;16.40;60.30;;;;;;2622460;52;21677;-68
2023/09/27 01:24:34;;;;;;;2.80;1.20;;;16.30;60.20;;;;;;2623232;52;21673;-68
2023/09/27 01:27:01;;;;;;;2.50;0.85;;;16.30;60.30;;;;;;2369959;53;20939;-71
2023/09/27 01:29:28;;;;;;;2.37;1.10;;;16.30;60.30;;;;;;2623346;52;20923;-70
2023/09/27 01:31:55;;;;;;;2.30;0.95;;;16.20;60.20;;;;;;2369993;53;21017;-67
2023/09/27 01:34:21;;;;;;;2.95;1.10;;;16.20;60.30;;;;;;2370613;53;20970;-68
2023/09/27 01:36:49;;;;;;;2.22;0.95;;;16.20;60.40;;;;;;2622645;52;21005;-67
2023/09/27 01:39:16;;;;;;;2.03;0.90;;;16.10;60.50;;;;;;2623493;52;21030;-68
2023/09/27 01:41:42;;;;;;;3.00;1.17;;;16.10;60.60;;;;;;2622890;52;21486;-68
2023/09/27 01:44:09;;;;;;;2.00;0.88;;;16.10;60.70;;;;;;2622979;52;21053;-67
2023/09/27 01:46:35;;;;;;;1.92;0.88;;;16.10;60.70;;;;;;2621969;52;21026;-67
2023/09/27 01:49:04;;;;;;;2.05;0.93;;;16.00;60.70;;;;;;2622723;52;20906;-69
2023/09/27 01:51:31;;;;;;;1.58;0.70;;;16.00;60.80;;;;;;2623186;52;20931;-68
2023/09/27 01:53:57;;;;;;;4.00;1.10;;;16.00;60.80;;;;;;2369669;53;20942;-69
2023/09/27 01:56:24;;;;;;;2.40;1.00;;;16.00;60.70;;;;;;2373864;53;20943;-69
2023/09/27 01:58:50;;;;;;;2.03;1.00;;;16.00;60.70;;;;;;2622953;52;20973;-69
2023/09/27 02:01:17;;;;;;;1.87;0.90;;;16.00;60.80;;;;;;2371536;53;21818;-67
2023/09/27 02:03:44;;;;;;;2.53;1.15;;;15.90;60.80;;;;;;2622084;52;20926;-69
2023/09/27 02:06:10;;;;;;;2.40;1.00;;;15.90;60.90;;;;;;2623434;52;21268;-67
2023/09/27 02:08:37;;;;;;;1.95;0.95;;;15.90;60.80;;;;;;2623406;52;21694;-67
2023/09/27 02:11:03;;;;;;;2.78;1.33;;;15.90;60.90;;;;;;2369849;53;20910;-68
2023/09/27 02:13:31;;;;;;;3.22;1.00;;;16.00;61.10;;;;;;2369914;53;20919;-66
2023/09/27 02:15:57;;;;;;;2.37;1.00;;;15.90;61.00;;;;;;2622512;52;21417;-68
2023/09/27 02:18:24;;;;;;;2.15;0.90;;;15.90;61.00;;;;;;2622980;52;20967;-67
2023/09/27 02:20:51;;;;;;;2.12;0.93;;;15.90;60.90;;;;;;2370237;53;20966;-67
2023/09/27 02:23:17;;;;;;;2.37;1.00;;;15.80;60.80;;;;;;2369809;53;20891;-70
2023/09/27 02:25:59;;;;;;;1.48;0.93;;;15.80;60.90;;;;;;2622720;52;20942;-68
2023/09/27 02:28:25;;;;;;;2.47;1.00;;;15.80;61.00;;;;;;2623678;52;20914;-68
2023/09/27 02:30:54;;;;;;;2.03;1.00;;;15.80;61.00;;;;;;2622995;52;20942;-70
2023/09/27 02:33:20;;;;;;;3.03;1.10;;;15.80;61.10;;;;;;2622690;52;21467;-68
2023/09/27 02:35:47;;;;;;;2.37;1.08;;;15.80;61.20;;;;;;2622687;52;20915;-67
2023/09/27 02:38:15;;;;;;;2.17;1.00;;;15.80;61.20;;;;;;2621235;52;21002;-67
2023/09/27 02:40:42;;;;;;;2.08;0.95;;;15.70;61.20;;;;;;2623161;52;21805;-68
2023/09/27 02:43:08;;;;;;;3.58;0.82;;;15.70;61.20;;;;;;2369996;53;20910;-68
2023/09/27 02:45:34;;;;;;;2.75;0.90;;;15.80;61.20;;;;;;2370486;53;20954;-68
2023/09/27 02:48:01;;;;;;;2.60;1.00;;;15.80;61.10;;;;;;2369275;53;21834;-68
2023/09/27 02:50:27;;;;;;;1.87;0.93;;;15.70;60.90;;;;;;2623261;52;21030;-68
2023/09/27 02:52:54;;;;;;;3.33;1.02;;;15.70;61.00;;;;;;2622507;52;20990;-69
2023/09/27 02:55:20;;;;;;;2.95;1.17;;;15.60;61.00;;;;;;2370463;53;20911;-67
2023/09/27 02:57:50;;;;;;;2.78;1.10;;;15.70;61.20;;;;;;2622612;52;20911;-67
2023/09/27 03:00:18;;;;;;;3.67;0.95;;;15.60;61.10;;;;;;2622263;52;21131;-68
2023/09/27 03:02:45;;;;;;;2.70;1.17;;;15.60;61.20;;;;;;2597592;52;20958;-68
2023/09/27 03:05:12;;;;;;;2.97;1.00;;;15.60;61.10;;;;;;2620053;52;20935;-70
2023/09/27 03:07:38;;;;;;;2.37;1.12;;;15.60;61.00;;;;;;2370375;53;20914;-66
2023/09/27 03:10:10;;;;;;;2.20;1.10;;;15.60;61.00;;;;;;2366780;53;21420;-69
2023/09/27 03:12:38;;;;;;;3.55;1.30;;;15.50;61.00;;;;;;2603960;52;21045;-67
2023/09/27 03:15:10;;;;;;;2.70;1.10;;;15.50;61.00;;;;;;2360508;53;21380;-68
2023/09/27 03:17:39;;;;;;;2.25;0.98;;;15.50;61.10;;;;;;2612370;52;20922;-66
2023/09/27 03:20:14;;;;;;;2.72;0.93;;;15.50;61.10;;;;;;2607699;52;21506;-67
2023/09/27 03:22:40;;;;;;;3.15;1.20;;;15.40;61.00;;;;;;2595790;52;20931;-66
2023/09/27 03:25:07;;;;;;;2.08;0.90;;;15.40;61.00;;;;;;2360056;53;20930;-67
2023/09/27 03:27:33;;;;;;;2.40;1.10;;;15.40;61.10;;;;;;2370860;53;20971;-70
2023/09/27 03:30:00;;;;;;;2.55;0.90;;;15.30;61.00;;;;;;2622455;52;20915;-67
2023/09/27 03:32:26;;;;;;;2.53;1.00;;;15.30;61.00;;;;;;2371323;53;21267;-69
2023/09/27 03:34:53;;;;;;;2.30;1.00;;;15.30;60.90;;;;;;2370517;53;20954;-66
2023/09/27 03:37:19;;;;;;;2.45;1.20;;;15.30;60.80;;;;;;2622654;52;20958;-66
2023/09/27 03:39:46;;;;;;;2.60;1.12;;;15.20;60.80;;;;;;2623548;52;20966;-67
2023/09/27 03:42:13;;;;;;;3.95;1.10;;;15.20;61.00;;;;;;2370259;53;21683;-66
2023/09/27 03:44:41;;;;;;;2.35;1.15;;;15.20;61.10;;;;;;2622599;52;20930;-67
2023/09/27 03:47:07;;;;;;;2.92;1.35;;;15.10;61.10;;;;;;2621595;52;20918;-68
2023/09/27 03:49:34;;;;;;;4.68;1.23;;;15.20;61.30;;;;;;2623157;52;21042;-66
2023/09/27 03:52:00;;;;;;;2.78;1.23;;;15.10;61.40;;;;;;2367777;53;20958;-68
2023/09/27 03:54:27;;;;;;;4.05;1.40;;;15.10;61.40;;;;;;2351879;53;21698;-69
2023/09/27 03:56:54;;;;;;;2.83;1.33;;;15.10;61.40;;;;;;2370759;53;20978;-68
2023/09/27 03:59:20;;;;;;;3.75;1.48;;;15.10;61.40;;;;;;2604220;52;20930;-69
2023/09/27 04:01:46;;;;;;;2.50;1.20;;;15.10;61.40;;;;;;2613147;52;20930;-68
2023/09/27 04:04:13;;;;;;;3.05;1.55;;;15.10;61.30;;;;;;2371820;53;21486;-67
2023/09/27 04:06:39;;;;;;;3.03;1.45;;;15.10;61.30;;;;;;2596441;52;21666;-69
2023/09/27 04:09:06;;;;;;;2.83;1.20;;;15.00;61.30;;;;;;2601463;52;20990;-72
2023/09/27 04:11:33;;;;;;;3.47;1.25;;;15.00;61.40;;;;;;2616684;52;20985;-72
2023/09/27 04:13:59;;;;;;;3.20;1.50;;;15.00;61.30;;;;;;2622015;52;20901;-72
2023/09/27 04:16:28;;;;;;;2.50;1.40;;;15.00;61.30;;;;;;2623228;52;21066;-70
2023/09/27 04:18:55;;;;;;;3.10;1.60;;;15.00;61.40;;;;;;2597433;52;20962;-70
2023/09/27 04:21:21;;;;;;;4.57;1.60;;;15.00;61.40;;;;;;2362329;53;20938;-69
2023/09/27 04:23:57;;;;;;;3.55;1.52;;;15.00;61.40;;;;;;2354949;53;20974;-72
2023/09/27 04:26:26;;;;;;;2.87;1.45;;;14.90;61.20;;;;;;2370025;53;20918;-68
2023/09/27 04:29:00;;;;;;;2.60;1.20;;;14.90;61.30;;;;;;2369164;53;21379;-70
2023/09/27 04:31:26;;;;;;;2.60;1.30;;;14.90;61.30;;;;;;2622345;52;20962;-68
2023/09/27 04:33:53;;;;;;;3.35;1.40;;;14.90;61.30;;;;;;2622473;52;20926;-68
2023/09/27 04:36:20;;;;;;;4.15;1.50;;;14.80;61.20;;;;;;2369492;53;20906;-71
2023/09/27 04:38:46;;;;;;;4.00;1.67;;;14.80;61.30;;;;;;2622447;52;21195;-67
2023/09/27 04:41:16;;;;;;;5.07;1.40;;;14.80;61.30;;;;;;2370907;53;20914;-68
2023/09/27 04:43:45;;;;;;;2.60;1.30;;;14.80;61.30;;;;;;2614925;52;20959;-67
2023/09/27 04:46:16;;;;;;;4.43;1.45;;;14.80;61.30;;;;;;2601235;52;20997;-68
2023/09/27 04:48:43;;;;;;;3.20;1.35;;;14.80;61.10;;;;;;2588820;52;20957;-69
2023/09/27 04:51:10;;;;;;;5.05;1.70;;;14.80;61.10;;;;;;2370277;53;20910;-68
2023/09/27 04:53:37;;;;;;;3.15;1.77;;;14.80;61.10;;;;;;2623014;52;21002;-72
2023/09/27 04:56:10;;;;;;;3.50;1.35;;;14.70;61.10;;;;;;2370433;53;21089;-69
2023/09/27 04:58:38;;;;;;;2.53;1.50;;;14.70;61.10;;;;;;2344036;53;21442;-69
2023/09/27 05:01:05;;;;;;;3.00;1.60;;;14.70;61.20;;;;;;2342106;53;20953;-68
2023/09/27 05:03:32;;;;;;;3.12;1.45;;;14.60;61.30;;;;;;2587305;52;20925;-66
2023/09/27 05:05:58;;;;;;;2.78;1.48;;;14.60;61.30;;;;;;2342865;53;20952;-68
2023/09/27 05:08:26;;;;;;;2.55;1.42;;;14.60;61.30;;;;;;2588953;52;20933;-67
2023/09/27 05:10:52;;;;;;;2.83;1.30;;;14.60;61.30;;;;;;2358355;53;20993;-68
2023/09/27 05:13:21;;;;;;;2.83;1.45;;;14.60;62.00;;;;;;2344776;53;20912;-70
2023/09/27 05:15:52;;;;;;;3.45;1.45;;;14.60;61.30;;;;;;2361460;53;20966;-69
2023/09/27 05:18:18;;;;;;;3.20;1.60;;;14.50;61.10;;;;;;2621927;52;21734;-67
2023/09/27 05:20:45;;;;;;;3.90;1.40;;;14.50;61.10;;;;;;2370330;53;20973;-69
2023/09/27 05:23:12;;;;;;;2.58;1.25;;;14.50;61.00;;;;;;2369681;53;21020;-72
2023/09/27 05:25:38;;;;;;;3.72;1.67;;;14.40;60.90;;;;;;2370762;53;21033;-70
2023/09/27 05:28:05;;;;;;;6.47;1.60;;;14.40;61.00;;;;;;2370033;53;20918;-71
2023/09/27 05:30:31;;;;;;;2.95;1.42;;;14.40;61.00;;;;;;2370551;53;20946;-71
2023/09/27 05:33:00;;;;;;;2.92;1.67;;;14.40;61.10;;;;;;2369945;53;20914;-69
2023/09/27 05:35:27;;;;;;;3.00;1.65;;;14.30;61.00;;;;;;2370611;53;21079;-67
2023/09/27 05:37:53;;;;;;;2.67;1.37;;;14.30;61.20;;;;;;2622316;52;21737;-69
2023/09/27 05:40:19;;;;;;;3.22;1.55;;;14.30;61.20;;;;;;2369260;53;20914;-70
2023/09/27 05:42:46;;;;;;;2.97;1.55;;;14.30;61.20;;;;;;2369189;53;20962;-68
2023/09/27 05:45:16;;;;;;;2.78;1.55;;;14.30;61.20;;;;;;2622173;52;21494;-70
2023/09/27 05:47:42;;;;;;;2.90;1.52;;;14.30;61.20;;;;;;2588624;52;21487;-70
2023/09/27 05:50:11;;;;;;;3.17;1.70;;;14.20;61.10;;;;;;2342142;53;20977;-69
2023/09/27 05:52:37;;;;;;;3.12;1.67;;;14.20;61.20;;;;;;2342756;53;20926;-69
2023/09/27 05:55:07;;;;;;;4.25;1.60;;;14.20;61.30;;;;;;2342534;53;20964;-67
2023/09/27 05:57:33;;;;;;;2.80;1.45;;;14.20;61.40;;;;;;2587225;52;21866;-70
2023/09/27 06:00:00;;;;;;;3.45;1.60;;;14.20;61.40;;;;;;2341706;53;20936;-71
2023/09/27 06:02:32;;;;;;;2.70;1.30;;;14.20;61.50;;;;;;2602078;52;20938;-69
2023/09/27 06:04:59;;;;;;;3.55;1.45;;;14.20;61.50;;;;;;2591440;52;20953;-70
2023/09/27 06:07:25;;;;;;;2.53;1.23;;;14.20;61.50;;;;;;2588854;52;21104;-72
2023/09/27 06:09:52;;;;;;;2.78;1.30;;;14.20;61.50;;;;;;2605988;52;20941;-68
2023/09/27 06:12:18;;;;;;;3.65;1.77;;;14.20;61.50;;;;;;2342989;53;22004;-68
2023/09/27 06:14:44;;;;;;;4.35;1.92;;;14.10;61.50;;;;;;2589229;52;21370;-70
2023/09/27 06:17:15;;;;;;;3.28;1.70;;;14.20;61.70;;;;;;2588378;52;21021;-68
2023/09/27 06:19:42;;;;;;;3.58;1.62;;;14.20;61.90;;;;;;2588065;52;21070;-70
2023/09/27 06:22:08;;;;;;;3.40;1.60;;;14.10;61.90;;;;;;2342509;53;21223;-68
2023/09/27 06:24:34;;;;;;;3.17;1.67;;;14.20;62.10;;;;;;2577181;52;20992;-67
2023/09/27 06:27:01;;;;;;;3.22;1.62;;;14.20;62.30;;;;;;2588084;52;20926;-71
2023/09/27 06:29:27;;;;;;;3.83;1.50;;;14.20;62.40;;;;;;2341761;54;21867;-71
2023/09/27 06:31:53;;;;;;;2.90;1.33;;;14.20;62.60;;;;;;2604756;52;20962;-69
2023/09/27 06:34:20;;;;;;;3.22;1.42;;;14.20;62.60;;;;;;2622775;52;20954;-67
2023/09/27 06:36:51;;;;;;;2.78;1.50;;;14.30;62.70;;;;;;2370741;53;21367;-68
2023/09/27 06:39:19;;;;;;;3.10;1.55;;;14.30;62.80;;;;;;2370165;53;20998;-69
2023/09/27 06:41:45;;;;;;;3.12;1.30;;;14.30;62.90;;;;;;2623402;52;20918;-71
2023/09/27 06:44:14;;;;;;;2.30;1.33;;;14.40;63.00;;;;;;2370760;53;20984;-69
2023/09/27 06:46:40;;;;;;;3.47;1.52;;;14.40;63.10;;;;;;2370679;53;21906;-69
2023/09/27 06:49:13;;;;;;;2.67;1.37;;;14.40;63.20;;;;;;2623086;52;20922;-71
2023/09/27 06:51:39;;;;;;;5.87;1.98;;;14.50;63.40;;;;;;2621088;52;20973;-70
2023/09/27 06:54:06;;;;;;;3.25;1.83;;;14.50;63.60;;;;;;2623165;52;21008;-67
2023/09/27 06:56:32;;;;;;;4.03;1.73;;;14.50;63.70;;;;;;2370230;53;20919;-68
2023/09/27 06:58:59;;;;;;;4.80;2.20;;;14.60;63.90;;;;;;2365586;53;20975;-69
2023/09/27 07:01:26;;;;;;;5.50;2.33;;;14.70;64.20;;;;;;2603314;52;21309;-69
2023/09/27 07:03:56;;;;;;;5.20;2.50;;;14.70;64.30;;;;;;2371194;53;20926;-68
2023/09/27 07:06:23;;;;;;;3.53;2.15;;;14.80;64.50;;;;;;2370004;53;20982;-69
2023/09/27 07:08:52;;;;;;;5.55;2.00;;;14.80;64.50;;;;;;2623383;52;20930;-70
2023/09/27 07:11:19;;;;;;;3.42;1.70;;;14.90;64.70;;;;;;2623265;52;22063;-68
2023/09/27 07:13:46;;;;;;;4.15;2.15;;;15.00;65.00;;;;;;2356445;53;21013;-69
2023/09/27 07:16:29;;;;;;;5.28;2.08;;;15.00;65.00;;;;;;2347168;53;20952;-69
2023/09/27 07:19:05;;;;;;;4.55;2.25;;;15.20;65.40;;;;;;2343210;53;20928;-69
2023/09/27 07:21:31;;;;;;;3.75;1.87;;;15.30;65.30;;;;;;2603824;52;20929;-70
2023/09/27 07:23:57;;;;;;;3.60;1.83;;;15.30;65.30;;;;;;2589537;52;20929;-69
2023/09/27 07:26:34;;;;;;;3.50;1.70;;;15.40;65.40;;;;;;2342530;53;21406;-69
2023/09/27 07:29:00;;;;;;;3.83;1.70;;;15.50;65.50;;;;;;2588856;52;21394;-69
2023/09/27 07:31:30;;;;;;;5.22;1.90;;;15.60;65.60;;;;;;2343054;53;20910;-70
2023/09/27 07:33:56;;;;;;;4.05;1.70;;;15.70;65.70;;;;;;2589465;52;21383;-70
2023/09/27 07:36:26;;;;;;;3.50;1.67;;;15.80;65.80;;;;;;2589014;52;20992;-72
2023/09/27 07:38:55;;;;;;;4.87;2.05;;;15.90;65.90;;;;;;2346182;53;20953;-68
2023/09/27 07:41:21;;;;;;;3.40;1.73;;;15.90;65.90;;;;;;2584344;52;21430;-70
2023/09/27 07:43:48;;;;;;;3.35;1.52;;;16.00;65.90;;;;;;2589815;52;21001;-69
2023/09/27 07:46:14;;;;;;;4.62;2.00;;;16.10;66.10;;;;;;2346518;53;20946;-72
2023/09/27 07:48:42;;;;;;;3.10;1.50;;;16.20;66.20;;;;;;2615516;52;20958;-72
2023/09/27 07:51:12;;;;;;;3.62;1.80;;;16.40;66.40;;;;;;2360818;53;21497;-70
2023/09/27 07:53:38;;;;;;;3.67;1.73;;;16.40;66.40;;;;;;2349935;53;20926;-69
2023/09/27 07:56:06;;;;;;;2.92;1.70;;;16.50;66.50;;;;;;2347680;53;20945;-69
2023/09/27 07:58:36;;;;;;;3.67;1.80;;;16.60;66.60;;;;;;2341908;53;21055;-72
2023/09/27 08:01:03;;;;;;;4.32;1.90;;;16.70;66.60;;;;;;2342608;53;21849;-69
2023/09/27 08:03:29;;;;;;;3.15;1.60;;;16.80;66.70;;;;;;2588508;52;20933;-69
2023/09/27 08:05:56;;;;;;;4.47;1.50;;;16.80;66.70;;;;;;2342529;53;20984;-70
2023/09/27 08:08:22;;;;;;;2.70;1.35;;;16.90;66.70;;;;;;2342860;53;20944;-70
2023/09/27 08:10:49;;;;;;;2.90;1.37;;;17.00;66.70;;;;;;2615293;52;21190;-70
2023/09/27 08:13:17;;;;;;;2.70;1.30;;;17.30;67.00;;;;;;2618947;52;20922;-70
2023/09/27 08:15:46;;;;;;;2.83;1.40;;;17.30;66.90;;;;;;2350541;53;20986;-69
2023/09/27 08:18:12;;;;;;;3.58;1.50;;;17.40;66.90;;;;;;2370399;53;20967;-69
2023/09/27 08:20:40;;;;;;;3.22;1.50;;;17.40;66.80;;;;;;2371113;53;20985;-70
2023/09/27 08:23:08;;;;;;;2.95;1.37;;;17.60;66.90;;;;;;2591087;52;20932;-72
2023/09/27 08:25:36;;;;;;;2.97;1.52;;;17.60;66.80;;;;;;2622983;52;20942;-69
2023/09/27 08:28:05;;;;;;;3.17;1.60;;;17.70;66.90;;;;;;2607935;52;21447;-70
2023/09/27 08:30:33;;;;;;;2.50;1.33;;;17.80;66.90;;;;;;2359170;53;20967;-72
2023/09/27 08:33:00;;;;;;;4.03;1.40;;;17.90;67.00;;;;;;2622297;52;20922;-70
2023/09/27 08:35:27;;;;;;;3.87;1.62;;;18.10;67.10;;;;;;2370114;53;20922;-71
2023/09/27 08:37:55;;;;;;;5.30;1.58;;;18.20;67.20;;;;;;2370480;53;20923;-70
2023/09/27 08:40:21;;;;;;;3.00;1.50;;;18.30;67.20;;;;;;2370782;53;21768;-69
2023/09/27 08:42:50;;;;;;;3.33;1.60;;;18.40;67.10;;;;;;2622937;52;21006;-70
2023/09/27 08:45:17;;;;;;;3.08;1.60;;;18.50;67.10;;;;;;2370477;53;20930;-70
2023/09/27 08:47:44;;;;;;;3.60;1.52;;;18.60;67.10;;;;;;2621320;52;20906;-70
2023/09/27 08:50:13;;;;;;;4.60;1.42;;;18.70;67.10;;;;;;2370535;53;20973;-69
2023/09/27 08:52:43;;;;;;;2.40;1.25;;;18.80;67.10;;;;;;2369847;53;20982;-70
2023/09/27 08:55:12;;;;;;;3.22;1.35;;;19.00;67.10;;;;;;2623401;52;20958;-70
2023/09/27 08:57:43;;;;;;;2.67;1.27;;;19.00;66.90;;;;;;2622794;52;20966;-70
2023/09/27 09:00:13;;;;;;;3.05;1.65;;;19.20;66.90;;;;;;2370843;53;20930;-71
2023/09/27 09:02:43;;;;;;;3.25;1.35;;;19.20;66.90;;;;;;2370772;53;20911;-73
2023/09/27 09:05:12;;;;;;;2.85;1.20;;;19.40;66.90;;;;;;2370664;53;20918;-70
2023/09/27 09:07:41;;;;;;;2.55;1.23;;;19.50;66.90;;;;;;2370145;53;20903;-70
2023/09/27 09:10:18;;;;;;;3.47;1.40;;;19.60;66.70;;;;;;2369994;53;21006;-73
2023/09/27 09:12:47;;;;;;;3.97;1.20;;;19.70;66.70;;;;;;2622739;52;20910;-70
2023/09/27 09:15:48;;;;;;;3.40;1.65;;;19.80;66.80;;;;;;2623284;52;21002;-72
2023/09/27 09:18:28;;;;;;;2.65;1.17;;;19.90;66.40;;;;;;2370715;53;21023;-70
2023/09/27 09:20:58;;;;;;;2.28;1.02;;;20.00;66.50;;;;;;2370604;53;21006;-70
2023/09/27 09:23:32;;;;;;;3.22;1.20;;;20.10;66.80;;;;;;2370174;53;20946;-70
2023/09/27 09:25:58;;;;;;;3.78;1.42;;;20.30;66.60;;;;;;2370809;53;20942;-68
2023/09/27 09:28:25;;;;;;;2.70;1.10;;;20.30;66.50;;;;;;2622990;52;21038;-68
2023/09/27 09:30:54;;;;;;;2.80;1.30;;;20.40;66.30;;;;;;2370743;53;20939;-70
2023/09/27 09:33:24;;;;;;;3.58;1.50;;;20.50;66.20;;;;;;2623311;52;21383;-70
2023/09/27 09:35:54;;;;;;;5.28;1.40;;;20.60;66.10;;;;;;2370815;53;21005;-72
2023/09/27 09:38:28;;;;;;;2.87;1.30;;;20.70;65.70;;;;;;2623512;52;20906;-71
2023/09/27 09:40:58;;;;;;;3.08;1.48;;;20.80;65.60;;;;;;2362572;53;20959;-70
2023/09/27 09:43:36;;;;;;;2.95;1.12;;;20.90;65.60;;;;;;2599295;52;21038;-69
2023/09/27 09:46:10;;;;;;;3.30;1.40;;;21.00;65.30;;;;;;2343508;53;21271;-71
2023/09/27 09:48:38;;;;;;;2.80;1.40;;;21.10;65.20;;;;;;2588881;52;20924;-69
2023/09/27 09:51:06;;;;;;;2.90;1.55;;;21.20;65.40;;;;;;2350500;53;21916;-70
2023/09/27 09:53:42;;;;;;;2.58;1.20;;;21.20;65.30;;;;;;2338611;54;20937;-71
2023/09/27 09:56:09;;;;;;;3.03;1.42;;;21.30;65.20;;;;;;2589058;52;20905;-70
2023/09/27 09:59:03;;;;;;;3.95;1.40;;;21.40;65.20;;;;;;2342475;53;20952;-69
2023/09/27 10:01:37;;;;;;;3.08;1.48;;;21.50;64.70;;;;;;2342021;53;20933;-71
2023/09/27 10:04:04;;;;;;;2.67;1.37;;;21.60;64.80;;;;;;2339046;54;21534;-68
2023/09/27 10:06:30;;;;;;;3.35;1.30;;;21.60;64.80;;;;;;2365859;54;20902;-70
2023/09/27 10:09:13;;;;;;;2.50;1.20;;;21.70;64.70;;;;;;2617045;52;21566;-68
2023/09/27 10:11:40;;;;;;;4.20;1.40;;;21.80;64.70;;;;;;2355622;53;20993;-69
2023/09/27 10:14:10;;;;;;;3.03;1.15;;;21.90;64.60;;;;;;2598995;52;20990;-70
2023/09/27 10:16:37;;;;;;;3.08;1.30;;;22.00;64.50;;;;;;2344055;53;21031;-70
2023/09/27 10:19:05;;;;;;;2.95;1.33;;;22.00;64.30;;;;;;2343124;53;20924;-71
2023/09/27 10:21:34;;;;;;;3.25;1.30;;;22.10;64.20;;;;;;2589090;52;20941;-71
2023/09/27 10:24:01;;;;;;;3.10;1.27;;;22.20;64.10;;;;;;2341857;53;21064;-69
2023/09/27 10:26:36;;;;;;;3.95;1.80;;;22.30;64.10;;;;;;2343678;53;20932;-72
2023/09/27 10:29:15;;;;;;;2.67;1.23;;;22.30;63.60;;;;;;2587897;52;20952;-71
2023/09/27 10:35:16;;;;;;;3.00;1.15;;;22.40;63.50;;;;;;2585133;52;20921;-70
2023/09/27 10:37:59;;;;;;;3.58;1.02;;;22.60;63.50;;;;;;2341325;54;21809;-72
2023/09/27 10:40:25;;;;;;;2.35;1.00;;;22.70;63.30;;;;;;2370950;53;20950;-71
2023/09/27 10:42:53;;;;;;;4.40;1.35;;;22.80;64.00;;;;;;2348594;53;20930;-69
2023/09/27 10:45:21;;;;;;;3.30;1.55;;;22.90;63.90;;;;;;2370519;53;20973;-71
2023/09/27 10:47:49;;;;;;;3.30;1.45;;;22.90;63.60;;;;;;2622697;52;20914;-71
2023/09/27 10:50:27;;;;;;;2.85;1.50;;;23.00;63.70;;;;;;2370763;53;20989;-72
2023/09/27 10:52:54;;;;;;;3.03;1.52;;;23.10;62.90;;;;;;2370695;53;20953;-70
2023/09/27 10:55:20;;;;;;;3.92;1.27;;;23.10;63.60;;;;;;2370405;53;21395;-71
2023/09/27 10:57:46;;;;;;;3.47;1.15;;;23.20;63.10;;;;;;2622161;52;20983;-71
2023/09/27 11:00:13;;;;;;;2.58;1.20;;;23.30;63.00;;;;;;2370858;53;20915;-71
2023/09/27 11:02:39;;;;;;;2.80;1.15;;;23.30;63.00;;;;;;2370638;53;21638;-71
2023/09/27 11:05:07;;;;;;;3.00;1.48;;;23.40;62.90;;;;;;2622542;52;21123;-72
2023/09/27 11:07:46;;;;;;;3.12;1.60;;;23.50;62.70;;;;;;2623510;52;20894;-70
2023/09/27 11:10:31;;;;;;;3.40;1.58;;;23.60;61.60;;;;;;2619292;52;20969;-70
2023/09/27 11:13:09;;;;;;;3.35;1.58;;;23.60;61.70;;;;;;2623209;52;20935;-70
2023/09/27 11:15:37;;;;;;;4.37;1.95;;;23.70;61.30;;;;;;2370755;53;20922;-71
2023/09/27 11:18:07;;;;;;;3.20;1.35;;;23.80;61.80;;;;;;2622547;52;20989;-70
2023/09/27 11:20:33;;;;;;;2.92;1.33;;;23.80;61.90;;;;;;2370547;53;20946;-71
2023/09/27 11:23:01;;;;;;;3.65;1.27;;;23.90;61.90;;;;;;2369474;53;21010;-70
2023/09/27 11:25:31;;;;;;;3.03;1.42;;;24.00;61.90;;;;;;2370834;53;20934;-70
2023/09/27 11:27:58;;;;;;;3.42;1.52;;;24.00;61.80;;;;;;2370526;53;21467;-70
2023/09/27 11:30:32;;;;;;;2.65;1.30;;;24.10;61.80;;;;;;2622879;52;21027;-70
2023/09/27 11:33:01;;;;;;;3.97;1.33;;;24.20;61.20;;;;;;2372449;53;21009;-72
2023/09/27 11:35:27;;;;;;;4.20;1.50;;;24.20;61.40;;;;;;2369492;53;21376;-71
2023/09/27 11:38:08;;;;;;;2.90;1.23;;;24.30;61.40;;;;;;2373176;53;21791;-70
2023/09/27 11:40:34;;;;;;;3.17;1.37;;;24.40;60.40;;;;;;2371450;53;20957;-70
2023/09/27 11:43:01;;;;;;;2.80;1.30;;;24.40;60.90;;;;;;2623141;52;21412;-69
2023/09/27 11:45:51;;;;;;;3.67;1.58;;;24.50;60.60;;;;;;2370371;53;21065;-71
2023/09/27 11:48:32;;;;;;;3.20;1.80;;;24.50;59.60;;;;;;2370772;53;20993;-71
2023/09/27 11:51:00;;;;;;;3.55;1.60;;;24.60;59.60;;;;;;2623320;52;20998;-70
2023/09/27 11:53:26;;;;;;;3.47;1.30;;;24.60;60.10;;;;;;2370859;53;20938;-72
2023/09/27 11:55:57;;;;;;;3.25;1.35;;;24.70;60.30;;;;;;2623423;52;20914;-72
2023/09/27 11:58:23;;;;;;;3.30;1.17;;;24.70;60.50;;;;;;2370274;53;20999;-71
2023/09/27 12:00:49;;;;;;;3.03;1.42;;;24.80;60.40;;;;;;2622975;52;20899;-70
2023/09/27 12:03:17;;;;;;;3.40;1.45;;;24.80;60.20;;;;;;2623668;52;20967;-71
2023/09/27 12:05:46;;;;;;;2.78;1.50;;;24.90;60.20;;;;;;2370801;53;20915;-70
2023/09/27 12:08:12;;;;;;;3.42;1.42;;;24.90;60.00;;;;;;2371120;53;20887;-70
2023/09/27 12:10:39;;;;;;;3.60;1.62;;;25.00;59.90;;;;;;2371045;53;21471;-70
2023/09/27 12:13:05;;;;;;;3.10;1.30;;;25.00;59.70;;;;;;2617557;52;20999;-71
2023/09/27 12:15:32;;;;;;;2.60;1.30;;;25.10;59.70;;;;;;2370338;53;20922;-71
2023/09/27 12:17:59;;;;;;;4.18;1.30;;;25.20;59.70;;;;;;2620857;52;20993;-70
2023/09/27 12:20:27;;;;;;;3.17;1.50;;;25.20;59.70;;;;;;2362221;53;20990;-71
2023/09/27 12:23:02;;;;;;;3.08;1.40;;;25.20;59.60;;;;;;2361232;53;20947;-71
2023/09/27 12:25:29;;;;;;;3.50;1.60;;;25.30;59.50;;;;;;2622802;52;21443;-72
2023/09/27 12:27:55;;;;;;;2.83;1.48;;;25.40;59.50;;;;;;2368731;53;20967;-70
2023/09/27 12:30:22;;;;;;;2.80;1.42;;;25.40;59.30;;;;;;2367504;53;21046;-71
2023/09/27 12:32:48;;;;;;;3.60;1.70;;;25.40;59.10;;;;;;2352529;53;20933;-71
2023/09/27 12:35:14;;;;;;;2.95;1.48;;;25.50;59.10;;;;;;2608948;52;21355;-71
2023/09/27 12:37:41;;;;;;;3.15;1.50;;;25.60;59.10;;;;;;2358678;53;20911;-71
2023/09/27 12:40:08;;;;;;;3.55;1.55;;;25.60;59.00;;;;;;2621603;52;20951;-71
2023/09/27 12:42:34;;;;;;;3.03;1.50;;;25.70;59.00;;;;;;2351027;53;20930;-71
2023/09/27 12:45:01;;;;;;;4.40;1.80;;;25.70;59.00;;;;;;2621960;52;20910;-71
2023/09/27 12:47:32;;;;;;;3.10;1.60;;;25.80;58.90;;;;;;2354266;53;20986;-71
2023/09/27 12:50:03;;;;;;;3.00;1.37;;;25.90;58.60;;;;;;2617710;52;20911;-70
2023/09/27 12:52:31;;;;;;;2.45;1.25;;;25.90;58.80;;;;;;2370653;53;21495;-71
2023/09/27 12:54:57;;;;;;;2.80;1.20;;;26.00;58.90;;;;;;2367517;53;20974;-71
2023/09/27 12:57:24;;;;;;;2.25;1.10;;;26.00;58.90;;;;;;2353520;53;21424;-73